createdAt,value
2022-11-21T00:02:01.854Z,0.83
2022-11-21T00:07:03.408Z,0.94
2022-11-21T00:12:05.106Z,0.71
2022-11-21T00:17:06.643Z,0.83
2022-11-21T00:22:08.207Z,0.92
2022-11-21T00:27:09.732Z,1.04
2022-11-21T00:32:11.265Z,1.09
2022-11-21T00:37:12.827Z,1.23
2022-11-21T00:42:36.204Z,1.18
2022-11-21T00:47:37.756Z,1.33
2022-11-21T00:52:39.279Z,1.43
2022-11-21T00:57:40.879Z,1.43
2022-11-21T01:02:42.367Z,1.49
2022-11-21T01:07:43.858Z,1.53
2022-11-21T01:12:45.727Z,1.49
2022-11-21T01:17:47.306Z,1.51
2022-11-21T01:22:48.912Z,1.38
2022-11-21T01:27:50.422Z,1.36
2022-11-21T01:32:52.364Z,1.36
2022-11-21T01:37:55.941Z,1.33
2022-11-21T01:43:14.780Z,1.32
2022-11-21T01:48:16.555Z,1.22
2022-11-21T01:53:18.683Z,1.17
2022-11-21T01:58:21.774Z,1.15
2022-11-21T02:03:27.365Z,1.05
2022-11-21T02:08:32.622Z,1.02
2022-11-21T02:13:34.102Z,0.98
2022-11-21T02:18:38.449Z,1.01
2022-11-21T02:23:43.271Z,1.05
2022-11-21T02:28:45.140Z,1.13
2022-11-21T02:33:46.702Z,1.15
2022-11-21T02:38:48.177Z,1.14
2022-11-21T02:43:57.424Z,1.12
2022-11-21T02:48:59.221Z,1.13
2022-11-21T02:54:00.722Z,1.20
2022-11-21T02:59:02.537Z,1.25
2022-11-21T03:04:04.126Z,1.33
2022-11-21T03:09:05.702Z,1.40
2022-11-21T03:14:07.190Z,1.46
2022-11-21T03:19:08.662Z,1.51
2022-11-21T03:24:10.330Z,1.52
2022-11-21T03:29:11.793Z,1.50
2022-11-21T03:34:16.218Z,1.41
2022-11-21T03:39:17.721Z,1.43
2022-11-21T03:44:21.371Z,1.45
2022-11-21T03:49:22.852Z,1.46
2022-11-21T03:54:24.353Z,1.40
2022-11-21T03:59:26.256Z,1.29
2022-11-21T04:04:27.951Z,1.28
2022-11-21T04:09:29.617Z,1.31
2022-11-21T04:14:31.104Z,1.25
2022-11-21T04:19:32.627Z,1.17
2022-11-21T04:24:34.168Z,1.15
2022-11-21T04:29:35.714Z,1.04
2022-11-21T04:34:41.046Z,0.95
2022-11-21T04:39:42.624Z,0.95
2022-11-21T04:44:44.134Z,0.93
2022-11-21T04:49:45.619Z,0.93
2022-11-21T04:54:48.085Z,0.90
2022-11-21T04:59:49.555Z,0.84
2022-11-21T05:04:51.119Z,0.87
2022-11-21T05:09:54.022Z,0.83
2022-11-21T05:14:56.238Z,0.80
2022-11-21T05:19:57.775Z,0.86
2022-11-21T05:25:01.093Z,0.93
2022-11-21T05:30:02.687Z,0.91
2022-11-21T05:35:04.434Z,0.87
2022-11-21T05:40:06.741Z,0.88
2022-11-21T05:45:08.971Z,0.92
2022-11-21T05:50:10.521Z,0.89
2022-11-21T05:55:12.069Z,0.90
2022-11-21T06:00:17.001Z,0.92
2022-11-21T06:05:21.440Z,0.83
2022-11-21T06:10:23.119Z,0.88
2022-11-21T06:15:24.629Z,0.93
2022-11-21T06:20:26.267Z,0.86
2022-11-21T06:25:27.751Z,0.74
2022-11-21T06:30:29.288Z,0.75
2022-11-21T06:35:30.838Z,0.77
2022-11-21T06:40:32.487Z,0.73
2022-11-21T06:45:34.098Z,0.73
2022-11-21T06:50:35.718Z,0.75
2022-11-21T06:55:40.089Z,0.80
2022-11-21T07:00:41.647Z,0.74
2022-11-21T07:05:43.285Z,0.77
2022-11-21T07:11:03.507Z,0.80
2022-11-21T07:16:09.967Z,0.75
2022-11-21T07:21:12.750Z,0.71
2022-11-21T07:26:15.711Z,0.66
2022-11-21T07:31:17.280Z,0.67
2022-11-21T07:36:18.894Z,0.76
2022-11-21T07:41:20.365Z,0.81
2022-11-21T07:46:21.820Z,0.87
2022-11-21T07:51:23.297Z,0.90
2022-11-21T07:56:26.681Z,1.01
2022-11-21T08:01:28.880Z,1.15
2022-11-21T08:06:30.404Z,1.20
2022-11-21T08:11:32.396Z,1.17
2022-11-21T08:16:36.027Z,1.15
2022-11-21T08:21:37.538Z,1.23
2022-11-21T08:26:39.106Z,1.29
2022-11-21T08:31:41.116Z,1.24
2022-11-21T08:36:42.673Z,1.14
2022-11-21T08:42:09.152Z,1.19
2022-11-21T08:47:10.700Z,1.25
2022-11-21T08:52:13.405Z,1.28
2022-11-21T08:57:14.884Z,1.19
2022-11-21T09:02:16.440Z,0.77
2022-11-21T09:07:18.008Z,0.66
2022-11-21T09:12:19.552Z,0.87
2022-11-21T09:17:42.652Z,1.10
2022-11-21T09:22:44.130Z,0.91
2022-11-21T09:27:46.885Z,0.58
2022-11-21T09:39:35.701Z,0.82
2022-11-21T09:44:52.926Z,1.14
2022-11-21T09:50:31.804Z,0.78
2022-11-21T09:55:50.122Z,0.61
2022-11-21T10:00:53.260Z,0.57
2022-11-21T10:05:59.316Z,0.97
2022-11-21T10:11:20.210Z,1.26
2022-11-21T10:16:40.741Z,1.01
2022-11-21T10:22:05.842Z,0.87
2022-11-21T10:27:37.435Z,1.00
2022-11-21T10:32:54.900Z,1.19
2022-11-21T10:37:59.896Z,1.40
2022-11-21T10:43:28.927Z,1.26
2022-11-21T10:48:30.412Z,1.11
2022-11-21T10:53:50.502Z,1.19
2022-11-21T10:58:59.350Z,1.82
2022-11-21T11:09:33.588Z,1.45
2022-11-21T11:14:35.149Z,1.53
2022-11-21T11:19:40.415Z,1.72
2022-11-21T11:24:56.243Z,2.20
2022-11-21T11:30:07.349Z,1.87
2022-11-21T11:35:23.123Z,1.68
2022-11-21T11:40:35.792Z,1.79
2022-11-21T11:46:20.789Z,2.34
2022-11-21T11:51:28.160Z,3.02
2022-11-21T11:56:37.270Z,3.32
2022-11-21T12:01:45.238Z,3.21
2022-11-21T12:12:37.695Z,3.60
2022-11-21T12:17:51.182Z,3.73
2022-11-21T12:22:55.751Z,3.66
2022-11-21T12:27:57.459Z,3.82
2022-11-21T12:33:12.920Z,3.87
2022-11-21T12:38:45.050Z,4.02
2022-11-21T12:43:57.361Z,3.84
2022-11-21T12:49:41.734Z,3.95
2022-11-21T12:54:58.331Z,4.06
2022-11-21T13:00:12.083Z,4.12
2022-11-21T13:05:21.479Z,4.07
2022-11-21T13:10:23.155Z,3.98
2022-11-21T13:15:31.752Z,3.97
2022-11-21T13:20:41.635Z,4.13
2022-11-21T13:25:47.442Z,4.10
2022-11-21T13:30:56.813Z,4.23
2022-11-21T13:35:58.318Z,4.10
2022-11-21T13:41:18.696Z,3.87
2022-11-21T13:46:59.410Z,4.23
2022-11-21T13:52:11.332Z,4.21
2022-11-21T13:57:52.098Z,4.31
2022-11-21T14:03:24.177Z,4.32
2022-11-21T14:08:29.002Z,4.03
2022-11-21T14:13:38.743Z,4.10
2022-11-21T14:18:44.250Z,4.02
2022-11-21T14:23:47.155Z,4.03
2022-11-21T14:28:48.862Z,4.10
2022-11-21T14:33:58.382Z,3.95
2022-11-21T14:39:35.512Z,3.85
2022-11-21T14:44:28.190Z,3.88
2022-11-21T14:49:29.917Z,3.97
2022-11-21T15:06:08.339Z,4.28
2022-11-21T15:11:10.723Z,4.47
2022-11-21T15:16:12.627Z,4.37
2022-11-21T15:21:16.373Z,4.02
2022-11-21T15:26:33.937Z,4.07
2022-11-21T15:31:37.462Z,4.05
2022-11-21T15:36:39.138Z,4.12
2022-11-21T15:41:40.892Z,4.08
2022-11-21T15:46:42.515Z,4.13
2022-11-21T15:57:11.529Z,3.81
2022-11-21T16:02:14.468Z,3.99
2022-11-21T16:07:16.079Z,3.94
2022-11-21T16:12:17.620Z,4.03
2022-11-21T16:17:19.349Z,4.00
2022-11-21T16:22:21.017Z,3.85
2022-11-21T16:27:22.584Z,4.03
2022-11-21T16:32:27.166Z,4.07
2022-11-21T16:37:31.544Z,4.26
2022-11-21T16:42:33.030Z,4.40
2022-11-21T16:47:36.666Z,4.33
2022-11-21T16:52:38.216Z,4.19
2022-11-21T16:57:39.696Z,4.15
2022-11-21T17:02:41.226Z,4.10
2022-11-21T17:07:42.920Z,4.18
2022-11-21T17:12:44.531Z,4.28
2022-11-21T17:17:46.064Z,4.31
2022-11-21T17:22:47.587Z,4.11
2022-11-21T17:27:49.112Z,4.11
2022-11-21T17:32:50.684Z,4.27
2022-11-21T17:37:52.204Z,4.32
2022-11-21T17:42:53.662Z,4.23
2022-11-21T17:47:55.145Z,4.21
2022-11-21T17:52:57.175Z,4.18
2022-11-21T17:57:58.677Z,4.15
2022-11-21T18:03:00.190Z,4.21
2022-11-21T18:08:01.690Z,4.22
2022-11-21T18:13:03.181Z,4.35
2022-11-21T18:18:04.806Z,4.37
2022-11-21T18:23:06.272Z,4.32
2022-11-21T18:28:07.816Z,4.22
2022-11-21T18:33:10.166Z,4.23
2022-11-21T18:38:32.983Z,4.30
2022-11-21T18:43:35.479Z,4.39
2022-11-21T18:49:00.939Z,4.42
2022-11-21T18:54:03.228Z,4.23
2022-11-21T18:59:08.313Z,4.14
2022-11-21T19:04:09.875Z,4.19
2022-11-21T19:09:11.718Z,4.24
2022-11-21T19:14:13.442Z,4.36
2022-11-21T19:24:36.832Z,4.38
2022-11-21T19:29:39.743Z,4.33
2022-11-21T19:34:41.305Z,4.27
2022-11-21T19:39:42.906Z,4.22
2022-11-21T19:44:44.393Z,4.21
2022-11-21T19:49:45.918Z,4.31
2022-11-21T19:54:47.430Z,4.30
2022-11-21T19:59:48.942Z,4.30
2022-11-21T20:04:50.456Z,4.14
2022-11-21T20:09:52.056Z,4.01
2022-11-21T20:14:54.133Z,4.17
2022-11-21T20:19:57.829Z,4.20
2022-11-21T20:24:59.272Z,4.24
2022-11-21T20:30:00.772Z,4.23
2022-11-21T20:35:02.401Z,4.31
2022-11-21T20:40:04.076Z,4.35
2022-11-21T20:51:05.726Z,4.30
2022-11-21T20:55:49.691Z,4.32
2022-11-21T21:00:51.269Z,4.29
2022-11-21T21:06:06.602Z,4.20
2022-11-21T21:11:36.792Z,4.20
2022-11-21T21:16:36.437Z,4.15
2022-11-21T21:21:38.074Z,4.21
2022-11-21T21:26:45.430Z,4.28
2022-11-21T21:31:51.582Z,4.39
2022-11-21T21:36:56.580Z,4.33
2022-11-21T21:42:00.968Z,4.23
2022-11-21T21:47:05.211Z,4.20
2022-11-21T21:52:07.181Z,4.22
2022-11-21T21:57:11.881Z,4.19
2022-11-21T22:02:16.217Z,4.23
2022-11-21T22:07:20.469Z,4.33
2022-11-21T22:12:24.733Z,4.41
2022-11-21T22:17:26.263Z,4.27
2022-11-21T22:22:27.830Z,4.22
2022-11-21T22:27:31.544Z,4.24
2022-11-21T22:32:33.023Z,4.21
2022-11-21T22:37:34.516Z,4.14
2022-11-21T22:42:35.957Z,4.16
2022-11-21T22:47:37.432Z,4.24
2022-11-21T22:52:38.937Z,4.38
2022-11-21T22:57:40.428Z,4.37
2022-11-21T23:02:41.941Z,4.30
2022-11-21T23:07:45.617Z,4.30
2022-11-21T23:12:47.167Z,4.26
2022-11-21T23:17:52.558Z,4.42
2022-11-21T23:22:56.451Z,4.54
2022-11-21T23:27:57.936Z,4.47
2022-11-21T23:32:59.521Z,4.09
2022-11-21T23:38:00.985Z,4.21
2022-11-21T23:43:03.371Z,4.32
2022-11-21T23:48:05.069Z,4.36
2022-11-21T23:53:06.574Z,4.44
2022-11-21T23:58:08.202Z,4.52
